Caribou, ME

12:35 AM EDT on August 26, 2016 (GMT -0400)
Caribou Municipal | | Change Station

Elev 623 ft 46.87 °N, 68.02 °W | Updated 41 minutes ago

Clear
Clear
70 °F
Feels Like 70 °F
N
5
Wind Variable Wind from SW

Today
High -- | Low -- °F
--% Chance of Precip.
Yesterday
High -- | Low -- °F
Precip. -- in
Pressure 29.85 in
Visibility 10.0 miles
Clouds Clear
Dew Point 67 °F
Humidity 90%
Rainfall 0.00 in
Snow Depth Not available.
5:44 AM 7:22 PM
Last Quarter, 38% visible
METAR KCAR 260354Z AUTO 23004KT 10SM CLR 21/19 A2985 RMK AO2 SLP108 T02110194
Pressure 29.85 in
Visibility 10.0 miles
Clouds Clear
Dew Point 67 °F
Humidity 90%
Rainfall 0.00 in
Snow Depth Not available.
5:44 AM 7:22 PM
Last Quarter, 38% visible
METAR KCAR 260354Z AUTO 23004KT 10SM CLR 21/19 A2985 RMK AO2 SLP108 T02110194
A tropical disturbance pushing toward the Bahamas, is expected to develop into a tropical depression or storm, and will likely target Florida and the Gulf Coast this weekend into next week.

Right now, the disturbance remains a broad area of low pressure pushing through the Dominican Republic and Haiti, headed toward the southeast Bahamas. Rainfall totals over 3 inches (with locally higher amounts) are expected in HispaƱiola, particularly over elevated terrain.

10-Day Weather Forecast

Almanac

Astronomy

Aug. 26, 2016 Rise Set
Actual Time
Civil Twilight
Nautical Twilight
Astronomical Twilight
Moon
Length of Visible Light
Length of Day
Tomorrow will be .
, % of the Moon is Illuminated

Today's Extremes

State Highs State Lows

Community

WunderPhotos

Upload Photos

1,935,056 photos uploaded!

WunderBlog® & News

Nearby

Air Quality

  Air Quality AQ Index Pollutant
Not available.

Snow Depth

Station Depth Elevation

Earthquake Activity

City Distance Mag. Time & Date
Minimum magnitude displayed is 2.5.

Coastal Water Temperatures

Place Temperature

Stations

Nearby Weather Stations

Station Location Temp. Windchill Dew Point Humidity Wind Precip. Elev Updated Type
                   

Watches & Warnings

There are currently no watches in effect.